sensor_id;sensor_type;location;lat;lon;timestamp;P1;durP1;ratioP1;P2;durP2;ratioP2
9388;SDS011;4734;52.778;6.798;2022-10-26T00:01:33;9.15;;;7.13;;
9388;SDS011;4734;52.778;6.798;2022-10-26T00:04:18;9.90;;;6.90;;
9388;SDS011;4734;52.778;6.798;2022-10-26T00:07:05;7.57;;;6.85;;
9388;SDS011;4734;52.778;6.798;2022-10-26T00:09:51;11.15;;;6.70;;
9388;SDS011;4734;52.778;6.798;2022-10-26T00:12:36;8.20;;;7.38;;
9388;SDS011;4734;52.778;6.798;2022-10-26T00:15:22;7.50;;;6.68;;
9388;SDS011;4734;52.778;6.798;2022-10-26T00:18:07;7.68;;;6.38;;
9388;SDS011;4734;52.778;6.798;2022-10-26T00:20:53;10.23;;;6.75;;
9388;SDS011;4734;52.778;6.798;2022-10-26T00:23:40;13.48;;;7.78;;
9388;SDS011;4734;52.778;6.798;2022-10-26T00:26:25;8.50;;;7.32;;
9388;SDS011;4734;52.778;6.798;2022-10-26T00:29:11;10.68;;;7.57;;
9388;SDS011;4734;52.778;6.798;2022-10-26T00:31:56;10.70;;;7.60;;
9388;SDS011;4734;52.778;6.798;2022-10-26T00:34:42;11.60;;;7.25;;
9388;SDS011;4734;52.778;6.798;2022-10-26T00:37:28;9.15;;;8.00;;
9388;SDS011;4734;52.778;6.798;2022-10-26T00:40:15;11.32;;;7.43;;
9388;SDS011;4734;52.778;6.798;2022-10-26T00:43:00;8.23;;;7.40;;
9388;SDS011;4734;52.778;6.798;2022-10-26T00:45:46;9.60;;;7.20;;
9388;SDS011;4734;52.778;6.798;2022-10-26T00:48:33;9.60;;;7.75;;
9388;SDS011;4734;52.778;6.798;2022-10-26T00:51:22;9.35;;;7.68;;
9388;SDS011;4734;52.778;6.798;2022-10-26T00:54:13;8.10;;;7.25;;
9388;SDS011;4734;52.778;6.798;2022-10-26T00:57:03;7.90;;;7.20;;
9388;SDS011;4734;52.778;6.798;2022-10-26T00:59:48;8.98;;;6.97;;
9388;SDS011;4734;52.778;6.798;2022-10-26T01:02:38;10.15;;;7.35;;
9388;SDS011;4734;52.778;6.798;2022-10-26T01:05:23;9.48;;;7.70;;
9388;SDS011;4734;52.778;6.798;2022-10-26T01:08:10;11.32;;;7.60;;
9388;SDS011;4734;52.778;6.798;2022-10-26T01:10:56;8.77;;;7.47;;
9388;SDS011;4734;52.778;6.798;2022-10-26T01:13:47;8.30;;;7.43;;
9388;SDS011;4734;52.778;6.798;2022-10-26T01:16:39;9.23;;;8.27;;
9388;SDS011;4734;52.778;6.798;2022-10-26T01:23:13;9.05;;;7.72;;
9388;SDS011;4734;52.778;6.798;2022-10-26T01:29:45;9.15;;;7.72;;
9388;SDS011;4734;52.778;6.798;2022-10-26T01:33:19;11.25;;;8.60;;
9388;SDS011;4734;52.778;6.798;2022-10-26T01:36:15;10.75;;;7.90;;
9388;SDS011;4734;52.778;6.798;2022-10-26T01:39:05;10.13;;;8.32;;
9388;SDS011;4734;52.778;6.798;2022-10-26T01:41:59;9.50;;;8.00;;
9388;SDS011;4734;52.778;6.798;2022-10-26T01:44:48;10.77;;;8.02;;
9388;SDS011;4734;52.778;6.798;2022-10-26T01:47:38;9.67;;;8.63;;
9388;SDS011;4734;52.778;6.798;2022-10-26T01:50:25;9.23;;;8.33;;
9388;SDS011;4734;52.778;6.798;2022-10-26T01:53:12;10.25;;;7.50;;
9388;SDS011;4734;52.778;6.798;2022-10-26T01:55:58;9.80;;;7.77;;
9388;SDS011;4734;52.778;6.798;2022-10-26T01:58:55;9.07;;;8.27;;
9388;SDS011;4734;52.778;6.798;2022-10-26T02:05:35;9.70;;;8.70;;
9388;SDS011;4734;52.778;6.798;2022-10-26T02:08:37;12.57;;;8.23;;
9388;SDS011;4734;52.778;6.798;2022-10-26T02:11:35;10.47;;;8.23;;
9388;SDS011;4734;52.778;6.798;2022-10-26T02:14:26;11.50;;;8.40;;
9388;SDS011;4734;52.778;6.798;2022-10-26T02:17:21;9.93;;;8.80;;
9388;SDS011;4734;52.778;6.798;2022-10-26T02:20:13;11.63;;;8.97;;
9388;SDS011;4734;52.778;6.798;2022-10-26T02:23:05;9.63;;;8.63;;
9388;SDS011;4734;52.778;6.798;2022-10-26T02:25:53;9.88;;;8.88;;
9388;SDS011;4734;52.778;6.798;2022-10-26T02:28:42;9.53;;;8.63;;
9388;SDS011;4734;52.778;6.798;2022-10-26T02:31:31;10.73;;;9.63;;
9388;SDS011;4734;52.778;6.798;2022-10-26T02:34:21;12.63;;;9.37;;
9388;SDS011;4734;52.778;6.798;2022-10-26T02:37:09;11.80;;;9.63;;
9388;SDS011;4734;52.778;6.798;2022-10-26T02:39:57;14.23;;;10.43;;
9388;SDS011;4734;52.778;6.798;2022-10-26T02:42:45;12.83;;;9.97;;
9388;SDS011;4734;52.778;6.798;2022-10-26T02:45:33;11.70;;;9.20;;
9388;SDS011;4734;52.778;6.798;2022-10-26T02:48:22;11.27;;;10.00;;
9388;SDS011;4734;52.778;6.798;2022-10-26T02:51:08;13.07;;;9.80;;
9388;SDS011;4734;52.778;6.798;2022-10-26T02:53:56;13.20;;;10.37;;
9388;SDS011;4734;52.778;6.798;2022-10-26T02:56:48;11.43;;;9.20;;
9388;SDS011;4734;52.778;6.798;2022-10-26T02:59:37;11.15;;;9.88;;
9388;SDS011;4734;52.778;6.798;2022-10-26T03:02:27;11.83;;;9.87;;
9388;SDS011;4734;52.778;6.798;2022-10-26T03:05:13;11.77;;;10.30;;
9388;SDS011;4734;52.778;6.798;2022-10-26T03:08:03;10.53;;;9.47;;
9388;SDS011;4734;52.778;6.798;2022-10-26T03:10:49;14.30;;;10.17;;
9388;SDS011;4734;52.778;6.798;2022-10-26T03:13:36;11.70;;;10.50;;
9388;SDS011;4734;52.778;6.798;2022-10-26T03:16:21;13.20;;;10.43;;
9388;SDS011;4734;52.778;6.798;2022-10-26T03:19:07;11.93;;;9.67;;
9388;SDS011;4734;52.778;6.798;2022-10-26T03:21:53;12.27;;;9.93;;
9388;SDS011;4734;52.778;6.798;2022-10-26T03:24:38;13.17;;;10.93;;
9388;SDS011;4734;52.778;6.798;2022-10-26T03:27:24;11.07;;;9.83;;
9388;SDS011;4734;52.778;6.798;2022-10-26T03:30:11;11.83;;;10.30;;
9388;SDS011;4734;52.778;6.798;2022-10-26T03:32:56;13.27;;;10.73;;
9388;SDS011;4734;52.778;6.798;2022-10-26T03:35:42;12.80;;;10.23;;
9388;SDS011;4734;52.778;6.798;2022-10-26T03:38:27;11.83;;;10.60;;
9388;SDS011;4734;52.778;6.798;2022-10-26T03:41:13;12.27;;;10.50;;
9388;SDS011;4734;52.778;6.798;2022-10-26T03:43:58;13.83;;;10.30;;
9388;SDS011;4734;52.778;6.798;2022-10-26T03:46:45;11.67;;;10.43;;
9388;SDS011;4734;52.778;6.798;2022-10-26T03:49:31;12.47;;;9.87;;
9388;SDS011;4734;52.778;6.798;2022-10-26T03:52:16;11.27;;;9.83;;
9388;SDS011;4734;52.778;6.798;2022-10-26T03:55:02;14.90;;;9.77;;
9388;SDS011;4734;52.778;6.798;2022-10-26T03:57:48;12.60;;;10.07;;
9388;SDS011;4734;52.778;6.798;2022-10-26T04:00:37;11.43;;;10.07;;
9388;SDS011;4734;52.778;6.798;2022-10-26T04:03:24;12.73;;;10.80;;
9388;SDS011;4734;52.778;6.798;2022-10-26T04:06:09;10.37;;;9.27;;
9388;SDS011;4734;52.778;6.798;2022-10-26T04:08:55;12.40;;;9.87;;
9388;SDS011;4734;52.778;6.798;2022-10-26T04:11:44;12.60;;;10.13;;
9388;SDS011;4734;52.778;6.798;2022-10-26T04:14:30;13.50;;;9.30;;
9388;SDS011;4734;52.778;6.798;2022-10-26T04:17:16;17.63;;;9.77;;
9388;SDS011;4734;52.778;6.798;2022-10-26T04:20:03;13.87;;;9.50;;
9388;SDS011;4734;52.778;6.798;2022-10-26T04:22:55;12.87;;;9.77;;
9388;SDS011;4734;52.778;6.798;2022-10-26T04:25:42;14.10;;;10.33;;
9388;SDS011;4734;52.778;6.798;2022-10-26T04:28:28;13.53;;;10.13;;
9388;SDS011;4734;52.778;6.798;2022-10-26T04:31:14;11.13;;;10.03;;
9388;SDS011;4734;52.778;6.798;2022-10-26T04:33:59;11.53;;;9.93;;
9388;SDS011;4734;52.778;6.798;2022-10-26T04:36:46;10.50;;;9.40;;
9388;SDS011;4734;52.778;6.798;2022-10-26T04:39:31;14.20;;;9.87;;
9388;SDS011;4734;52.778;6.798;2022-10-26T04:42:17;14.57;;;9.63;;
9388;SDS011;4734;52.778;6.798;2022-10-26T04:45:03;10.90;;;9.70;;
9388;SDS011;4734;52.778;6.798;2022-10-26T04:47:57;12.47;;;9.70;;
9388;SDS011;4734;52.778;6.798;2022-10-26T04:50:44;13.23;;;9.87;;
9388;SDS011;4734;52.778;6.798;2022-10-26T04:53:31;13.03;;;9.77;;
9388;SDS011;4734;52.778;6.798;2022-10-26T04:56:17;17.53;;;10.23;;
9388;SDS011;4734;52.778;6.798;2022-10-26T04:59:03;10.57;;;8.97;;
9388;SDS011;4734;52.778;6.798;2022-10-26T05:01:48;9.77;;;8.77;;
9388;SDS011;4734;52.778;6.798;2022-10-26T05:04:34;13.03;;;8.83;;
9388;SDS011;4734;52.778;6.798;2022-10-26T05:07:19;15.33;;;8.83;;
9388;SDS011;4734;52.778;6.798;2022-10-26T05:10:07;12.70;;;8.77;;
9388;SDS011;4734;52.778;6.798;2022-10-26T05:12:54;12.23;;;8.53;;
9388;SDS011;4734;52.778;6.798;2022-10-26T05:15:41;10.33;;;8.50;;
9388;SDS011;4734;52.778;6.798;2022-10-26T05:18:26;11.63;;;8.90;;
9388;SDS011;4734;52.778;6.798;2022-10-26T05:21:12;10.30;;;9.17;;
9388;SDS011;4734;52.778;6.798;2022-10-26T05:24:02;10.87;;;8.67;;
9388;SDS011;4734;52.778;6.798;2022-10-26T05:26:48;10.13;;;9.20;;
9388;SDS011;4734;52.778;6.798;2022-10-26T05:29:34;12.40;;;8.87;;
9388;SDS011;4734;52.778;6.798;2022-10-26T05:32:20;11.33;;;9.00;;
9388;SDS011;4734;52.778;6.798;2022-10-26T05:35:06;10.80;;;8.00;;
9388;SDS011;4734;52.778;6.798;2022-10-26T05:37:51;9.20;;;7.77;;
9388;SDS011;4734;52.778;6.798;2022-10-26T05:40:37;10.00;;;7.90;;
9388;SDS011;4734;52.778;6.798;2022-10-26T05:43:24;8.93;;;7.93;;
9388;SDS011;4734;52.778;6.798;2022-10-26T05:46:09;8.90;;;8.00;;
9388;SDS011;4734;52.778;6.798;2022-10-26T05:48:55;8.60;;;7.60;;
9388;SDS011;4734;52.778;6.798;2022-10-26T05:51:40;8.70;;;7.80;;
9388;SDS011;4734;52.778;6.798;2022-10-26T05:54:26;9.13;;;7.90;;
9388;SDS011;4734;52.778;6.798;2022-10-26T05:57:11;10.03;;;7.97;;
9388;SDS011;4734;52.778;6.798;2022-10-26T05:59:59;10.07;;;7.53;;
9388;SDS011;4734;52.778;6.798;2022-10-26T06:02:49;9.80;;;7.90;;
9388;SDS011;4734;52.778;6.798;2022-10-26T06:05:52;10.37;;;7.50;;
9388;SDS011;4734;52.778;6.798;2022-10-26T06:08:39;11.07;;;6.93;;
9388;SDS011;4734;52.778;6.798;2022-10-26T06:11:26;11.00;;;7.23;;
9388;SDS011;4734;52.778;6.798;2022-10-26T06:14:12;11.27;;;7.83;;
9388;SDS011;4734;52.778;6.798;2022-10-26T06:17:03;13.53;;;7.43;;
9388;SDS011;4734;52.778;6.798;2022-10-26T06:20:04;9.67;;;7.43;;
9388;SDS011;4734;52.778;6.798;2022-10-26T06:23:04;10.90;;;6.73;;
9388;SDS011;4734;52.778;6.798;2022-10-26T06:26:15;9.37;;;7.10;;
9388;SDS011;4734;52.778;6.798;2022-10-26T06:29:11;18.17;;;7.37;;
9388;SDS011;4734;52.778;6.798;2022-10-26T06:32:07;10.60;;;7.47;;
9388;SDS011;4734;52.778;6.798;2022-10-26T06:34:55;9.07;;;6.77;;
9388;SDS011;4734;52.778;6.798;2022-10-26T06:37:51;7.95;;;6.53;;
9388;SDS011;4734;52.778;6.798;2022-10-26T06:40:39;8.50;;;6.97;;
9388;SDS011;4734;52.778;6.798;2022-10-26T06:43:28;8.60;;;6.57;;
9388;SDS011;4734;52.778;6.798;2022-10-26T06:46:20;9.17;;;6.53;;
9388;SDS011;4734;52.778;6.798;2022-10-26T06:49:15;7.20;;;6.03;;
9388;SDS011;4734;52.778;6.798;2022-10-26T06:52:08;11.13;;;7.10;;
9388;SDS011;4734;52.778;6.798;2022-10-26T06:54:57;10.93;;;6.30;;
9388;SDS011;4734;52.778;6.798;2022-10-26T06:57:43;12.27;;;6.50;;
9388;SDS011;4734;52.778;6.798;2022-10-26T07:00:29;6.97;;;6.20;;
9388;SDS011;4734;52.778;6.798;2022-10-26T07:03:15;6.37;;;5.73;;
9388;SDS011;4734;52.778;6.798;2022-10-26T07:06:03;8.00;;;6.27;;
9388;SDS011;4734;52.778;6.798;2022-10-26T07:08:49;7.13;;;5.50;;
9388;SDS011;4734;52.778;6.798;2022-10-26T07:11:35;7.03;;;5.70;;
9388;SDS011;4734;52.778;6.798;2022-10-26T07:14:20;7.30;;;6.07;;
9388;SDS011;4734;52.778;6.798;2022-10-26T07:17:06;6.30;;;5.63;;
9388;SDS011;4734;52.778;6.798;2022-10-26T07:19:53;8.23;;;5.90;;
9388;SDS011;4734;52.778;6.798;2022-10-26T07:22:40;10.57;;;6.27;;
9388;SDS011;4734;52.778;6.798;2022-10-26T07:25:26;7.27;;;5.80;;
9388;SDS011;4734;52.778;6.798;2022-10-26T07:28:12;9.13;;;6.40;;
9388;SDS011;4734;52.778;6.798;2022-10-26T07:30:58;10.00;;;5.88;;
9388;SDS011;4734;52.778;6.798;2022-10-26T07:33:43;9.20;;;6.75;;
9388;SDS011;4734;52.778;6.798;2022-10-26T07:36:29;7.75;;;5.93;;
9388;SDS011;4734;52.778;6.798;2022-10-26T07:39:16;6.55;;;5.95;;
9388;SDS011;4734;52.778;6.798;2022-10-26T07:42:01;8.90;;;5.50;;
9388;SDS011;4734;52.778;6.798;2022-10-26T07:44:47;6.47;;;5.85;;
9388;SDS011;4734;52.778;6.798;2022-10-26T07:47:32;6.15;;;5.47;;
9388;SDS011;4734;52.778;6.798;2022-10-26T07:50:18;8.85;;;5.45;;
9388;SDS011;4734;52.778;6.798;2022-10-26T07:53:03;5.70;;;5.10;;
9388;SDS011;4734;52.778;6.798;2022-10-26T07:55:53;6.75;;;5.50;;
9388;SDS011;4734;52.778;6.798;2022-10-26T07:58:39;8.15;;;5.60;;
9388;SDS011;4734;52.778;6.798;2022-10-26T08:01:25;6.05;;;5.32;;
9388;SDS011;4734;52.778;6.798;2022-10-26T08:04:10;6.07;;;5.57;;
9388;SDS011;4734;52.778;6.798;2022-10-26T08:06:56;7.85;;;5.88;;
9388;SDS011;4734;52.778;6.798;2022-10-26T08:09:42;6.25;;;5.32;;
9388;SDS011;4734;52.778;6.798;2022-10-26T08:12:29;8.05;;;5.15;;
9388;SDS011;4734;52.778;6.798;2022-10-26T08:15:14;8.43;;;5.40;;
9388;SDS011;4734;52.778;6.798;2022-10-26T08:17:59;7.85;;;5.10;;
9388;SDS011;4734;52.778;6.798;2022-10-26T08:20:45;6.20;;;5.32;;
9388;SDS011;4734;52.778;6.798;2022-10-26T08:23:31;6.60;;;5.32;;
9388;SDS011;4734;52.778;6.798;2022-10-26T08:26:17;6.85;;;5.20;;
9388;SDS011;4734;52.778;6.798;2022-10-26T08:29:04;6.13;;;5.30;;
9388;SDS011;4734;52.778;6.798;2022-10-26T08:31:49;6.60;;;5.38;;
9388;SDS011;4734;52.778;6.798;2022-10-26T08:34:35;6.50;;;5.80;;
9388;SDS011;4734;52.778;6.798;2022-10-26T08:37:21;9.05;;;5.32;;
9388;SDS011;4734;52.778;6.798;2022-10-26T08:40:08;12.25;;;5.45;;
9388;SDS011;4734;52.778;6.798;2022-10-26T08:43:00;7.75;;;5.22;;
9388;SDS011;4734;52.778;6.798;2022-10-26T08:45:51;7.97;;;4.97;;
9388;SDS011;4734;52.778;6.798;2022-10-26T08:48:42;11.43;;;5.80;;
9388;SDS011;4734;52.778;6.798;2022-10-26T08:51:32;6.82;;;5.10;;
9388;SDS011;4734;52.778;6.798;2022-10-26T08:54:21;6.45;;;4.80;;
9388;SDS011;4734;52.778;6.798;2022-10-26T08:57:15;9.20;;;5.03;;
9388;SDS011;4734;52.778;6.798;2022-10-26T09:00:05;11.20;;;4.80;;
9388;SDS011;4734;52.778;6.798;2022-10-26T09:02:56;6.15;;;4.35;;
9388;SDS011;4734;52.778;6.798;2022-10-26T09:05:45;6.72;;;4.82;;
9388;SDS011;4734;52.778;6.798;2022-10-26T09:08:47;5.78;;;4.18;;
9388;SDS011;4734;52.778;6.798;2022-10-26T09:11:45;4.43;;;4.05;;
9388;SDS011;4734;52.778;6.798;2022-10-26T09:14:41;6.82;;;4.78;;
9388;SDS011;4734;52.778;6.798;2022-10-26T09:17:36;9.18;;;4.90;;
9388;SDS011;4734;52.778;6.798;2022-10-26T09:26:52;5.72;;;4.03;;
9388;SDS011;4734;52.778;6.798;2022-10-26T09:29:39;5.82;;;4.00;;
9388;SDS011;4734;52.778;6.798;2022-10-26T09:32:28;6.18;;;4.40;;
9388;SDS011;4734;52.778;6.798;2022-10-26T09:35:22;7.07;;;3.70;;
9388;SDS011;4734;52.778;6.798;2022-10-26T09:38:12;6.25;;;4.20;;
9388;SDS011;4734;52.778;6.798;2022-10-26T09:41:01;8.52;;;4.30;;
9388;SDS011;4734;52.778;6.798;2022-10-26T09:43:51;4.63;;;3.80;;
9388;SDS011;4734;52.778;6.798;2022-10-26T09:46:43;4.35;;;3.40;;
9388;SDS011;4734;52.778;6.798;2022-10-26T09:49:34;9.60;;;3.97;;
9388;SDS011;4734;52.778;6.798;2022-10-26T09:52:25;6.45;;;4.03;;
9388;SDS011;4734;52.778;6.798;2022-10-26T09:55:12;4.35;;;3.65;;
9388;SDS011;4734;52.778;6.798;2022-10-26T09:57:59;5.05;;;3.80;;
9388;SDS011;4734;52.778;6.798;2022-10-26T10:00:47;7.45;;;3.60;;
9388;SDS011;4734;52.778;6.798;2022-10-26T10:03:34;9.75;;;3.88;;
9388;SDS011;4734;52.778;6.798;2022-10-26T10:06:19;4.47;;;3.05;;
9388;SDS011;4734;52.778;6.798;2022-10-26T10:09:06;4.97;;;3.30;;
9388;SDS011;4734;52.778;6.798;2022-10-26T10:11:56;3.58;;;3.00;;
9388;SDS011;4734;52.778;6.798;2022-10-26T10:14:54;3.13;;;2.63;;
9388;SDS011;4734;52.778;6.798;2022-10-26T10:17:41;5.78;;;3.10;;
9388;SDS011;4734;52.778;6.798;2022-10-26T10:20:32;6.07;;;2.75;;
9388;SDS011;4734;52.778;6.798;2022-10-26T10:23:28;5.15;;;3.08;;
9388;SDS011;4734;52.778;6.798;2022-10-26T10:26:16;3.78;;;2.80;;
9388;SDS011;4734;52.778;6.798;2022-10-26T10:29:08;7.10;;;2.90;;
9388;SDS011;4734;52.778;6.798;2022-10-26T10:32:00;4.13;;;2.53;;
9388;SDS011;4734;52.778;6.798;2022-10-26T10:34:47;6.35;;;2.67;;
9388;SDS011;4734;52.778;6.798;2022-10-26T10:37:35;7.90;;;2.60;;
9388;SDS011;4734;52.778;6.798;2022-10-26T10:40:24;4.20;;;2.30;;
9388;SDS011;4734;52.778;6.798;2022-10-26T10:43:13;6.65;;;2.47;;
9388;SDS011;4734;52.778;6.798;2022-10-26T10:46:00;3.08;;;2.50;;
9388;SDS011;4734;52.778;6.798;2022-10-26T10:48:46;3.92;;;2.45;;
9388;SDS011;4734;52.778;6.798;2022-10-26T10:51:52;5.75;;;2.53;;
9388;SDS011;4734;52.778;6.798;2022-10-26T10:54:40;6.72;;;2.63;;
9388;SDS011;4734;52.778;6.798;2022-10-26T10:57:26;6.68;;;2.67;;
9388;SDS011;4734;52.778;6.798;2022-10-26T11:00:16;5.55;;;3.08;;
9388;SDS011;4734;52.778;6.798;2022-10-26T11:03:16;3.97;;;2.53;;
9388;SDS011;4734;52.778;6.798;2022-10-26T11:06:27;5.10;;;2.45;;
9388;SDS011;4734;52.778;6.798;2022-10-26T11:09:15;4.32;;;2.70;;
9388;SDS011;4734;52.778;6.798;2022-10-26T11:12:05;3.47;;;2.78;;
9388;SDS011;4734;52.778;6.798;2022-10-26T11:14:56;3.78;;;2.70;;
9388;SDS011;4734;52.778;6.798;2022-10-26T11:17:50;7.35;;;2.75;;
9388;SDS011;4734;52.778;6.798;2022-10-26T11:20:46;5.93;;;2.50;;
9388;SDS011;4734;52.778;6.798;2022-10-26T11:23:38;5.38;;;3.00;;
9388;SDS011;4734;52.778;6.798;2022-10-26T11:26:31;9.57;;;3.00;;
9388;SDS011;4734;52.778;6.798;2022-10-26T11:29:22;6.88;;;2.75;;
9388;SDS011;4734;52.778;6.798;2022-10-26T11:32:15;8.23;;;2.78;;
9388;SDS011;4734;52.778;6.798;2022-10-26T11:35:09;3.83;;;2.67;;
9388;SDS011;4734;52.778;6.798;2022-10-26T11:38:01;4.53;;;2.50;;
9388;SDS011;4734;52.778;6.798;2022-10-26T11:40:53;5.03;;;2.90;;
9388;SDS011;4734;52.778;6.798;2022-10-26T11:43:45;6.10;;;2.90;;
9388;SDS011;4734;52.778;6.798;2022-10-26T11:46:33;6.07;;;2.75;;
9388;SDS011;4734;52.778;6.798;2022-10-26T11:49:25;3.60;;;2.45;;
9388;SDS011;4734;52.778;6.798;2022-10-26T11:52:17;4.50;;;2.40;;
9388;SDS011;4734;52.778;6.798;2022-10-26T11:55:08;5.38;;;2.75;;
9388;SDS011;4734;52.778;6.798;2022-10-26T11:57:55;4.88;;;2.70;;
9388;SDS011;4734;52.778;6.798;2022-10-26T12:00:43;7.75;;;3.10;;
9388;SDS011;4734;52.778;6.798;2022-10-26T12:03:32;9.65;;;2.92;;
9388;SDS011;4734;52.778;6.798;2022-10-26T12:06:24;6.70;;;2.95;;
9388;SDS011;4734;52.778;6.798;2022-10-26T12:09:14;3.67;;;2.55;;
9388;SDS011;4734;52.778;6.798;2022-10-26T12:12:05;5.63;;;3.13;;
9388;SDS011;4734;52.778;6.798;2022-10-26T12:14:58;4.70;;;3.00;;
9388;SDS011;4734;52.778;6.798;2022-10-26T12:17:50;6.72;;;2.80;;
9388;SDS011;4734;52.778;6.798;2022-10-26T12:20:56;8.27;;;2.70;;
9388;SDS011;4734;52.778;6.798;2022-10-26T12:23:53;6.03;;;3.38;;
9388;SDS011;4734;52.778;6.798;2022-10-26T12:26:46;3.50;;;2.58;;
9388;SDS011;4734;52.778;6.798;2022-10-26T12:29:47;6.20;;;3.35;;
9388;SDS011;4734;52.778;6.798;2022-10-26T12:32:50;5.50;;;3.08;;
9388;SDS011;4734;52.778;6.798;2022-10-26T12:35:38;7.05;;;2.97;;
9388;SDS011;4734;52.778;6.798;2022-10-26T12:38:26;4.88;;;2.88;;
9388;SDS011;4734;52.778;6.798;2022-10-26T12:41:42;6.57;;;3.03;;
9388;SDS011;4734;52.778;6.798;2022-10-26T12:44:39;3.42;;;2.83;;
9388;SDS011;4734;52.778;6.798;2022-10-26T12:48:02;6.30;;;2.55;;
9388;SDS011;4734;52.778;6.798;2022-10-26T12:50:48;11.40;;;3.45;;
9388;SDS011;4734;52.778;6.798;2022-10-26T12:53:34;9.23;;;3.00;;
9388;SDS011;4734;52.778;6.798;2022-10-26T12:56:20;7.15;;;3.13;;
9388;SDS011;4734;52.778;6.798;2022-10-26T12:59:19;7.65;;;3.20;;
9388;SDS011;4734;52.778;6.798;2022-10-26T13:05:53;5.05;;;2.95;;
9388;SDS011;4734;52.778;6.798;2022-10-26T13:08:47;6.57;;;2.83;;
9388;SDS011;4734;52.778;6.798;2022-10-26T13:11:36;11.15;;;3.15;;
9388;SDS011;4734;52.778;6.798;2022-10-26T13:14:30;5.53;;;3.05;;
9388;SDS011;4734;52.778;6.798;2022-10-26T13:17:21;5.53;;;3.25;;
9388;SDS011;4734;52.778;6.798;2022-10-26T13:20:14;6.78;;;3.63;;
9388;SDS011;4734;52.778;6.798;2022-10-26T13:23:02;9.70;;;3.45;;
9388;SDS011;4734;52.778;6.798;2022-10-26T13:26:04;7.65;;;3.22;;
9388;SDS011;4734;52.778;6.798;2022-10-26T13:28:52;7.72;;;3.22;;
9388;SDS011;4734;52.778;6.798;2022-10-26T13:31:52;8.23;;;2.85;;
9388;SDS011;4734;52.778;6.798;2022-10-26T13:34:42;7.10;;;3.10;;
9388;SDS011;4734;52.778;6.798;2022-10-26T13:37:30;6.20;;;3.15;;
9388;SDS011;4734;52.778;6.798;2022-10-26T13:40:18;11.95;;;3.65;;
9388;SDS011;4734;52.778;6.798;2022-10-26T13:43:06;9.15;;;3.35;;
9388;SDS011;4734;52.778;6.798;2022-10-26T13:45:59;8.90;;;3.20;;
9388;SDS011;4734;52.778;6.798;2022-10-26T13:48:47;11.85;;;3.95;;
9388;SDS011;4734;52.778;6.798;2022-10-26T13:51:36;10.77;;;3.50;;
9388;SDS011;4734;52.778;6.798;2022-10-26T13:54:27;8.80;;;3.63;;
9388;SDS011;4734;52.778;6.798;2022-10-26T13:57:19;7.78;;;3.35;;
9388;SDS011;4734;52.778;6.798;2022-10-26T14:00:14;6.40;;;3.47;;
9388;SDS011;4734;52.778;6.798;2022-10-26T14:03:12;8.35;;;3.42;;
9388;SDS011;4734;52.778;6.798;2022-10-26T14:05:58;9.85;;;3.35;;
9388;SDS011;4734;52.778;6.798;2022-10-26T14:08:47;5.03;;;3.63;;
9388;SDS011;4734;52.778;6.798;2022-10-26T14:11:41;7.43;;;3.58;;
9388;SDS011;4734;52.778;6.798;2022-10-26T14:14:31;9.27;;;3.75;;
9388;SDS011;4734;52.778;6.798;2022-10-26T14:17:19;5.90;;;3.45;;
9388;SDS011;4734;52.778;6.798;2022-10-26T14:20:10;7.40;;;3.50;;
9388;SDS011;4734;52.778;6.798;2022-10-26T14:23:03;7.43;;;3.28;;
9388;SDS011;4734;52.778;6.798;2022-10-26T14:25:51;7.00;;;3.65;;
9388;SDS011;4734;52.778;6.798;2022-10-26T14:28:42;6.85;;;4.15;;
9388;SDS011;4734;52.778;6.798;2022-10-26T14:31:34;8.60;;;3.53;;
9388;SDS011;4734;52.778;6.798;2022-10-26T14:34:21;11.25;;;3.35;;
9388;SDS011;4734;52.778;6.798;2022-10-26T14:37:08;14.88;;;5.40;;
9388;SDS011;4734;52.778;6.798;2022-10-26T14:39:55;8.30;;;4.20;;
9388;SDS011;4734;52.778;6.798;2022-10-26T14:42:40;8.70;;;3.92;;
9388;SDS011;4734;52.778;6.798;2022-10-26T14:45:31;7.60;;;3.40;;
9388;SDS011;4734;52.778;6.798;2022-10-26T14:48:20;7.05;;;3.50;;
9388;SDS011;4734;52.778;6.798;2022-10-26T14:51:09;6.45;;;3.00;;
9388;SDS011;4734;52.778;6.798;2022-10-26T14:54:00;6.43;;;3.45;;
9388;SDS011;4734;52.778;6.798;2022-10-26T14:56:47;4.97;;;3.00;;
9388;SDS011;4734;52.778;6.798;2022-10-26T14:59:33;5.13;;;3.13;;
9388;SDS011;4734;52.778;6.798;2022-10-26T15:02:20;5.95;;;3.20;;
9388;SDS011;4734;52.778;6.798;2022-10-26T15:05:17;12.60;;;8.68;;
9388;SDS011;4734;52.778;6.798;2022-10-26T15:08:38;8.75;;;4.45;;
9388;SDS011;4734;52.778;6.798;2022-10-26T15:11:27;4.95;;;2.88;;
9388;SDS011;4734;52.778;6.798;2022-10-26T15:14:15;4.75;;;3.22;;
9388;SDS011;4734;52.778;6.798;2022-10-26T15:17:01;4.95;;;3.05;;
9388;SDS011;4734;52.778;6.798;2022-10-26T15:19:47;3.53;;;2.72;;
9388;SDS011;4734;52.778;6.798;2022-10-26T15:22:33;4.53;;;2.97;;
9388;SDS011;4734;52.778;6.798;2022-10-26T15:25:21;5.13;;;2.83;;
9388;SDS011;4734;52.778;6.798;2022-10-26T15:28:10;6.75;;;2.88;;
9388;SDS011;4734;52.778;6.798;2022-10-26T15:31:06;5.07;;;2.83;;
9388;SDS011;4734;52.778;6.798;2022-10-26T15:34:13;7.47;;;2.90;;
9388;SDS011;4734;52.778;6.798;2022-10-26T15:36:59;9.65;;;3.53;;
9388;SDS011;4734;52.778;6.798;2022-10-26T15:39:45;7.85;;;2.88;;
9388;SDS011;4734;52.778;6.798;2022-10-26T15:42:32;4.07;;;2.90;;
9388;SDS011;4734;52.778;6.798;2022-10-26T15:45:21;5.97;;;2.92;;
9388;SDS011;4734;52.778;6.798;2022-10-26T15:48:15;8.80;;;2.90;;
9388;SDS011;4734;52.778;6.798;2022-10-26T15:51:03;4.50;;;3.03;;
9388;SDS011;4734;52.778;6.798;2022-10-26T15:53:49;4.43;;;3.30;;
9388;SDS011;4734;52.778;6.798;2022-10-26T15:56:34;7.03;;;3.38;;
9388;SDS011;4734;52.778;6.798;2022-10-26T15:59:23;4.90;;;3.03;;
9388;SDS011;4734;52.778;6.798;2022-10-26T16:02:12;4.05;;;3.00;;
9388;SDS011;4734;52.778;6.798;2022-10-26T16:04:58;3.28;;;2.97;;
9388;SDS011;4734;52.778;6.798;2022-10-26T16:07:44;7.38;;;3.47;;
9388;SDS011;4734;52.778;6.798;2022-10-26T16:10:31;4.40;;;3.58;;
9388;SDS011;4734;52.778;6.798;2022-10-26T16:13:17;4.78;;;3.35;;
9388;SDS011;4734;52.778;6.798;2022-10-26T16:16:04;9.10;;;3.20;;
9388;SDS011;4734;52.778;6.798;2022-10-26T16:18:56;4.75;;;3.40;;
9388;SDS011;4734;52.778;6.798;2022-10-26T16:21:41;8.15;;;3.65;;
9388;SDS011;4734;52.778;6.798;2022-10-26T16:24:28;7.63;;;3.55;;
9388;SDS011;4734;52.778;6.798;2022-10-26T16:27:14;5.20;;;3.10;;
9388;SDS011;4734;52.778;6.798;2022-10-26T16:30:00;8.90;;;3.97;;
9388;SDS011;4734;52.778;6.798;2022-10-26T16:32:47;5.75;;;3.45;;
9388;SDS011;4734;52.778;6.798;2022-10-26T16:35:32;8.82;;;3.50;;
9388;SDS011;4734;52.778;6.798;2022-10-26T16:38:17;6.65;;;3.30;;
9388;SDS011;4734;52.778;6.798;2022-10-26T16:41:04;5.32;;;3.88;;
9388;SDS011;4734;52.778;6.798;2022-10-26T16:43:51;4.30;;;3.05;;
9388;SDS011;4734;52.778;6.798;2022-10-26T16:46:36;3.97;;;3.40;;
9388;SDS011;4734;52.778;6.798;2022-10-26T16:49:23;8.23;;;3.67;;
9388;SDS011;4734;52.778;6.798;2022-10-26T16:52:09;7.32;;;4.10;;
9388;SDS011;4734;52.778;6.798;2022-10-26T16:54:55;12.30;;;4.10;;
9388;SDS011;4734;52.778;6.798;2022-10-26T16:57:40;6.13;;;3.63;;
9388;SDS011;4734;52.778;6.798;2022-10-26T17:00:26;4.65;;;3.80;;
9388;SDS011;4734;52.778;6.798;2022-10-26T17:03:12;6.55;;;4.05;;
9388;SDS011;4734;52.778;6.798;2022-10-26T17:05:59;9.45;;;3.70;;
9388;SDS011;4734;52.778;6.798;2022-10-26T17:08:47;6.32;;;4.10;;
9388;SDS011;4734;52.778;6.798;2022-10-26T17:11:32;6.70;;;4.00;;
9388;SDS011;4734;52.778;6.798;2022-10-26T17:14:18;6.47;;;4.07;;
9388;SDS011;4734;52.778;6.798;2022-10-26T17:17:04;6.32;;;4.18;;
9388;SDS011;4734;52.778;6.798;2022-10-26T17:19:52;7.75;;;4.70;;
9388;SDS011;4734;52.778;6.798;2022-10-26T17:22:39;6.80;;;4.38;;
9388;SDS011;4734;52.778;6.798;2022-10-26T17:25:24;4.70;;;4.00;;
9388;SDS011;4734;52.778;6.798;2022-10-26T17:28:10;8.65;;;4.80;;
9388;SDS011;4734;52.778;6.798;2022-10-26T17:31:02;6.78;;;4.35;;
9388;SDS011;4734;52.778;6.798;2022-10-26T17:33:49;7.60;;;4.38;;
9388;SDS011;4734;52.778;6.798;2022-10-26T17:36:35;7.93;;;4.53;;
9388;SDS011;4734;52.778;6.798;2022-10-26T17:39:22;6.03;;;4.55;;
9388;SDS011;4734;52.778;6.798;2022-10-26T17:42:07;7.47;;;4.47;;
9388;SDS011;4734;52.778;6.798;2022-10-26T17:44:53;11.38;;;5.80;;
9388;SDS011;4734;52.778;6.798;2022-10-26T17:47:39;6.70;;;5.18;;